sensor_id;sensor_type;location;lat;lon;timestamp;pressure;altitude;pressure_sealevel;temperature;humidity
40205;BME280;26963;42.666;23.366;2024-02-23T00:00:31;94672.91;;;8.00;53.36
40205;BME280;26963;42.666;23.366;2024-02-23T00:02:57;94605.34;;;7.66;52.86
40205;BME280;26963;42.666;23.366;2024-02-23T00:05:23;94578.53;;;7.28;52.85
40205;BME280;26963;42.666;23.366;2024-02-23T00:07:49;94609.72;;;7.52;52.89
40205;BME280;26963;42.666;23.366;2024-02-23T00:10:15;94658.94;;;7.89;53.85
40205;BME280;26963;42.666;23.366;2024-02-23T00:12:41;94643.06;;;7.74;53.32
40205;BME280;26963;42.666;23.366;2024-02-23T00:15:07;94615.84;;;7.53;53.42
40205;BME280;26963;42.666;23.366;2024-02-23T00:17:33;94678.69;;;7.83;53.68
40205;BME280;26963;42.666;23.366;2024-02-23T00:19:58;94679.03;;;7.71;53.75
40205;BME280;26963;42.666;23.366;2024-02-23T00:22:24;94674.78;;;7.70;53.58
40205;BME280;26963;42.666;23.366;2024-02-23T00:24:51;94703.72;;;7.82;53.57
40205;BME280;26963;42.666;23.366;2024-02-23T00:27:17;94668.16;;;7.67;53.21
40205;BME280;26963;42.666;23.366;2024-02-23T00:29:42;94616.16;;;7.46;53.43
40205;BME280;26963;42.666;23.366;2024-02-23T00:32:08;94670.19;;;7.81;52.57
40205;BME280;26963;42.666;23.366;2024-02-23T00:34:33;94603.94;;;7.45;53.02
40205;BME280;26963;42.666;23.366;2024-02-23T00:36:59;94596.22;;;7.43;52.80
40205;BME280;26963;42.666;23.366;2024-02-23T00:39:24;94584.56;;;7.39;52.54
40205;BME280;26963;42.666;23.366;2024-02-23T00:42:09;94671.97;;;7.91;53.32
40205;BME280;26963;42.666;23.366;2024-02-23T00:44:34;94674.16;;;7.83;53.38
40205;BME280;26963;42.666;23.366;2024-02-23T00:47:00;94601.00;;;7.46;54.01
40205;BME280;26963;42.666;23.366;2024-02-23T00:49:30;94627.31;;;7.77;52.82
40205;BME280;26963;42.666;23.366;2024-02-23T00:51:56;94639.75;;;7.87;52.32
40205;BME280;26963;42.666;23.366;2024-02-23T00:54:22;94641.25;;;7.69;53.03
40205;BME280;26963;42.666;23.366;2024-02-23T00:56:47;94631.50;;;7.59;53.19
40205;BME280;26963;42.666;23.366;2024-02-23T00:59:13;94645.41;;;7.51;53.66
40205;BME280;26963;42.666;23.366;2024-02-23T01:01:38;94645.41;;;7.51;53.97
40205;BME280;26963;42.666;23.366;2024-02-23T01:04:04;94615.19;;;7.37;54.50
40205;BME280;26963;42.666;23.366;2024-02-23T01:06:30;94631.03;;;7.52;54.19
40205;BME280;26963;42.666;23.366;2024-02-23T01:08:55;94631.25;;;7.56;54.03
40205;BME280;26963;42.666;23.366;2024-02-23T01:11:21;94569.16;;;7.01;54.56
40205;BME280;26963;42.666;23.366;2024-02-23T01:13:46;94646.75;;;7.48;54.30
40205;BME280;26963;42.666;23.366;2024-02-23T01:16:12;94645.88;;;7.58;54.44
40205;BME280;26963;42.666;23.366;2024-02-23T01:18:38;94601.88;;;7.37;54.14
40205;BME280;26963;42.666;23.366;2024-02-23T01:21:04;94584.41;;;7.25;54.26
40205;BME280;26963;42.666;23.366;2024-02-23T01:23:29;94590.22;;;7.32;54.23
40205;BME280;26963;42.666;23.366;2024-02-23T01:25:55;94634.06;;;7.70;54.34
40205;BME280;26963;42.666;23.366;2024-02-23T01:28:21;94637.31;;;7.66;54.22
40205;BME280;26963;42.666;23.366;2024-02-23T01:30:47;94612.44;;;7.47;54.23
40205;BME280;26963;42.666;23.366;2024-02-23T01:33:12;94629.34;;;7.61;54.47
40205;BME280;26963;42.666;23.366;2024-02-23T01:35:38;94621.97;;;7.53;53.88
40205;BME280;26963;42.666;23.366;2024-02-23T01:38:03;94390.47;;;6.06;53.65
40205;BME280;26963;42.666;23.366;2024-02-23T01:40:30;94622.34;;;7.71;53.77
40205;BME280;26963;42.666;23.366;2024-02-23T01:43:05;94613.03;;;7.68;53.59
40205;BME280;26963;42.666;23.366;2024-02-23T01:45:31;94556.06;;;7.40;53.47
40205;BME280;26963;42.666;23.366;2024-02-23T01:47:57;94613.19;;;7.82;53.90
40205;BME280;26963;42.666;23.366;2024-02-23T01:50:24;94614.78;;;7.83;53.64
40205;BME280;26963;42.666;23.366;2024-02-23T01:52:50;94525.34;;;7.23;53.50
40205;BME280;26963;42.666;23.366;2024-02-23T01:55:20;94550.78;;;7.34;53.96
40205;BME280;26963;42.666;23.366;2024-02-23T01:57:46;94603.94;;;7.74;54.00
40205;BME280;26963;42.666;23.366;2024-02-23T02:00:16;94552.03;;;7.47;53.91
40205;BME280;26963;42.666;23.366;2024-02-23T02:02:43;94548.53;;;7.47;53.78
40205;BME280;26963;42.666;23.366;2024-02-23T02:05:09;94600.31;;;7.89;53.58
40205;BME280;26963;42.666;23.366;2024-02-23T02:07:35;94558.97;;;7.67;53.94
40205;BME280;26963;42.666;23.366;2024-02-23T02:10:00;94588.63;;;7.85;53.46
40205;BME280;26963;42.666;23.366;2024-02-23T02:12:29;94596.72;;;7.75;53.54
40205;BME280;26963;42.666;23.366;2024-02-23T02:14:55;94601.13;;;7.60;53.76
40205;BME280;26963;42.666;23.366;2024-02-23T02:17:25;94514.59;;;7.04;54.04
40205;BME280;26963;42.666;23.366;2024-02-23T02:19:52;94332.06;;;5.61;54.46
40205;BME280;26963;42.666;23.366;2024-02-23T02:22:17;94547.38;;;6.99;55.18
40205;BME280;26963;42.666;23.366;2024-02-23T02:24:43;94609.34;;;7.34;55.45
40205;BME280;26963;42.666;23.366;2024-02-23T02:27:12;94600.53;;;7.39;55.39
40205;BME280;26963;42.666;23.366;2024-02-23T02:29:37;94472.66;;;6.66;54.84
40205;BME280;26963;42.666;23.366;2024-02-23T02:32:04;94453.41;;;6.45;54.73
40205;BME280;26963;42.666;23.366;2024-02-23T02:34:29;94594.41;;;7.39;55.06
40205;BME280;26963;42.666;23.366;2024-02-23T02:36:55;94524.78;;;6.97;55.54
40205;BME280;26963;42.666;23.366;2024-02-23T02:39:21;94595.97;;;7.40;55.28
40205;BME280;26963;42.666;23.366;2024-02-23T02:41:50;94584.84;;;7.38;55.10
40205;BME280;26963;42.666;23.366;2024-02-23T02:44:16;94512.16;;;6.78;54.90
40205;BME280;26963;42.666;23.366;2024-02-23T02:46:41;94576.00;;;7.13;55.04
40205;BME280;26963;42.666;23.366;2024-02-23T02:49:07;94568.13;;;6.97;55.48
40205;BME280;26963;42.666;23.366;2024-02-23T02:51:33;94517.56;;;6.68;55.70
40205;BME280;26963;42.666;23.366;2024-02-23T02:53:58;94610.47;;;7.28;55.92
40205;BME280;26963;42.666;23.366;2024-02-23T02:56:24;94542.66;;;6.91;55.63
40205;BME280;26963;42.666;23.366;2024-02-23T02:58:50;94535.97;;;6.94;55.74
40205;BME280;26963;42.666;23.366;2024-02-23T03:01:15;94589.97;;;7.29;55.29
40205;BME280;26963;42.666;23.366;2024-02-23T03:03:41;94606.88;;;7.43;55.05
40205;BME280;26963;42.666;23.366;2024-02-23T03:06:06;94550.09;;;6.94;55.01
40205;BME280;26963;42.666;23.366;2024-02-23T03:08:33;94609.28;;;7.45;55.11
40205;BME280;26963;42.666;23.366;2024-02-23T03:10:58;94570.50;;;7.33;55.09
40205;BME280;26963;42.666;23.366;2024-02-23T03:13:24;94584.69;;;7.53;54.97
40205;BME280;26963;42.666;23.366;2024-02-23T03:15:50;94593.75;;;7.52;55.24
40205;BME280;26963;42.666;23.366;2024-02-23T03:18:15;94608.38;;;7.55;55.33
40205;BME280;26963;42.666;23.366;2024-02-23T03:20:42;94607.00;;;7.57;55.60
40205;BME280;26963;42.666;23.366;2024-02-23T03:23:09;94614.75;;;7.59;55.47
40205;BME280;26963;42.666;23.366;2024-02-23T03:25:34;94554.28;;;7.00;55.29
40205;BME280;26963;42.666;23.366;2024-02-23T03:28:00;94603.00;;;7.30;55.72
40205;BME280;26963;42.666;23.366;2024-02-23T03:30:25;94607.91;;;7.47;55.67
40205;BME280;26963;42.666;23.366;2024-02-23T03:32:51;94553.09;;;7.12;55.22
40205;BME280;26963;42.666;23.366;2024-02-23T03:35:17;94601.50;;;7.48;55.70
40205;BME280;26963;42.666;23.366;2024-02-23T03:37:42;94613.75;;;7.49;55.41
40205;BME280;26963;42.666;23.366;2024-02-23T03:40:09;94617.75;;;7.47;54.96
40205;BME280;26963;42.666;23.366;2024-02-23T03:42:35;94605.75;;;7.49;55.25
40205;BME280;26963;42.666;23.366;2024-02-23T03:45:01;94603.63;;;7.51;55.11
40205;BME280;26963;42.666;23.366;2024-02-23T03:47:27;94483.22;;;6.77;55.12
40205;BME280;26963;42.666;23.366;2024-02-23T03:49:54;94576.63;;;7.34;55.18
40205;BME280;26963;42.666;23.366;2024-02-23T03:52:19;94585.34;;;7.40;55.73
40205;BME280;26963;42.666;23.366;2024-02-23T03:54:45;94611.41;;;7.43;55.76
40205;BME280;26963;42.666;23.366;2024-02-23T03:57:11;94615.03;;;7.52;55.36
40205;BME280;26963;42.666;23.366;2024-02-23T03:59:36;94624.63;;;7.53;55.11
40205;BME280;26963;42.666;23.366;2024-02-23T04:02:03;94561.06;;;7.17;55.35
40205;BME280;26963;42.666;23.366;2024-02-23T04:04:29;94609.22;;;7.50;55.75
40205;BME280;26963;42.666;23.366;2024-02-23T04:06:54;94490.13;;;6.78;55.55
40205;BME280;26963;42.666;23.366;2024-02-23T04:09:20;94409.66;;;6.32;55.18
40205;BME280;26963;42.666;23.366;2024-02-23T04:11:48;94565.81;;;7.20;55.54
40205;BME280;26963;42.666;23.366;2024-02-23T04:14:14;94536.75;;;6.99;55.54
40205;BME280;26963;42.666;23.366;2024-02-23T04:16:40;94598.25;;;7.27;56.07
40205;BME280;26963;42.666;23.366;2024-02-23T04:19:05;94621.53;;;7.41;55.87
40205;BME280;26963;42.666;23.366;2024-02-23T04:21:31;94562.28;;;7.00;56.08
40205;BME280;26963;42.666;23.366;2024-02-23T04:23:57;94635.41;;;7.38;56.11
40205;BME280;26963;42.666;23.366;2024-02-23T04:26:23;94596.41;;;7.23;55.98
40205;BME280;26963;42.666;23.366;2024-02-23T04:28:48;94613.59;;;7.35;56.22
40205;BME280;26963;42.666;23.366;2024-02-23T04:31:14;94579.13;;;7.20;56.10
40205;BME280;26963;42.666;23.366;2024-02-23T04:33:39;94546.94;;;6.87;55.89
40205;BME280;26963;42.666;23.366;2024-02-23T04:36:05;94599.59;;;7.25;55.69
40205;BME280;26963;42.666;23.366;2024-02-23T04:38:34;94544.31;;;6.82;55.37
40205;BME280;26963;42.666;23.366;2024-02-23T04:41:03;94551.84;;;6.69;56.11
40205;BME280;26963;42.666;23.366;2024-02-23T04:43:29;94616.03;;;6.92;56.69
40205;BME280;26963;42.666;23.366;2024-02-23T04:45:55;94554.03;;;6.57;56.59
40205;BME280;26963;42.666;23.366;2024-02-23T04:48:20;94571.06;;;6.61;56.72
40205;BME280;26963;42.666;23.366;2024-02-23T04:50:46;94618.94;;;6.96;56.54
40205;BME280;26963;42.666;23.366;2024-02-23T04:53:11;94634.09;;;7.00;57.15
40205;BME280;26963;42.666;23.366;2024-02-23T04:55:37;94627.75;;;6.91;56.98
40205;BME280;26963;42.666;23.366;2024-02-23T04:58:03;94624.00;;;6.97;56.87
40205;BME280;26963;42.666;23.366;2024-02-23T05:00:28;94626.41;;;6.94;56.93
40205;BME280;26963;42.666;23.366;2024-02-23T05:03:01;94608.22;;;6.72;56.96
40205;BME280;26963;42.666;23.366;2024-02-23T05:05:30;94454.38;;;5.60;57.31
40205;BME280;26963;42.666;23.366;2024-02-23T05:07:56;94627.88;;;6.71;57.15
40205;BME280;26963;42.666;23.366;2024-02-23T05:10:22;94627.63;;;6.67;57.43
40205;BME280;26963;42.666;23.366;2024-02-23T05:12:48;94622.09;;;6.58;57.57
40205;BME280;26963;42.666;23.366;2024-02-23T05:15:14;94635.38;;;6.58;58.37
40205;BME280;26963;42.666;23.366;2024-02-23T05:17:40;94638.81;;;6.64;57.77
40205;BME280;26963;42.666;23.366;2024-02-23T05:20:07;94640.16;;;6.56;57.67
40205;BME280;26963;42.666;23.366;2024-02-23T05:22:38;94599.94;;;6.18;58.48
40205;BME280;26963;42.666;23.366;2024-02-23T05:25:04;94622.53;;;6.15;58.78
40205;BME280;26963;42.666;23.366;2024-02-23T05:27:32;94672.19;;;6.30;59.44
40205;BME280;26963;42.666;23.366;2024-02-23T05:29:58;94632.38;;;6.20;59.70
40205;BME280;26963;42.666;23.366;2024-02-23T05:32:24;94590.44;;;6.01;58.96
40205;BME280;26963;42.666;23.366;2024-02-23T05:34:50;94500.91;;;5.42;58.71
40205;BME280;26963;42.666;23.366;2024-02-23T05:37:18;94572.38;;;6.09;57.97
40205;BME280;26963;42.666;23.366;2024-02-23T05:39:44;94639.97;;;6.47;57.97
40205;BME280;26963;42.666;23.366;2024-02-23T05:42:12;94392.06;;;4.86;58.03
40205;BME280;26963;42.666;23.366;2024-02-23T05:44:38;94569.22;;;6.01;58.51
40205;BME280;26963;42.666;23.366;2024-02-23T05:47:04;94632.75;;;6.53;58.32
40205;BME280;26963;42.666;23.366;2024-02-23T05:49:30;94587.75;;;6.22;58.37
40205;BME280;26963;42.666;23.366;2024-02-23T05:51:56;94648.41;;;6.60;58.84
40205;BME280;26963;42.666;23.366;2024-02-23T05:54:21;94641.25;;;6.55;60.04
40205;BME280;26963;42.666;23.366;2024-02-23T05:56:47;94596.16;;;6.34;59.04
40205;BME280;26963;42.666;23.366;2024-02-23T05:59:12;94643.00;;;6.80;58.60
40205;BME280;26963;42.666;23.366;2024-02-23T06:01:38;94660.16;;;6.98;57.93
40205;BME280;26963;42.666;23.366;2024-02-23T06:04:03;94643.22;;;6.84;57.60
40205;BME280;26963;42.666;23.366;2024-02-23T06:06:29;94641.91;;;6.87;57.49
40205;BME280;26963;42.666;23.366;2024-02-23T06:08:55;94677.09;;;7.13;57.37
40205;BME280;26963;42.666;23.366;2024-02-23T06:11:20;94659.81;;;7.10;56.58
40205;BME280;26963;42.666;23.366;2024-02-23T06:13:47;94624.03;;;6.92;56.32
40205;BME280;26963;42.666;23.366;2024-02-23T06:16:12;94688.69;;;7.32;56.50
40205;BME280;26963;42.666;23.366;2024-02-23T06:18:38;94695.56;;;7.39;56.05
40205;BME280;26963;42.666;23.366;2024-02-23T06:21:16;94643.84;;;7.10;56.09
40205;BME280;26963;42.666;23.366;2024-02-23T06:23:43;94698.09;;;7.54;55.83
40205;BME280;26963;42.666;23.366;2024-02-23T06:26:10;94677.94;;;7.43;54.90
40205;BME280;26963;42.666;23.366;2024-02-23T06:28:36;94700.75;;;7.54;55.17
40205;BME280;26963;42.666;23.366;2024-02-23T06:31:05;94672.00;;;7.51;54.59
40205;BME280;26963;42.666;23.366;2024-02-23T06:33:31;94682.63;;;7.56;54.65
40205;BME280;26963;42.666;23.366;2024-02-23T06:35:57;94643.94;;;7.34;54.89
40205;BME280;26963;42.666;23.366;2024-02-23T06:38:22;94672.47;;;7.29;55.39
40205;BME280;26963;42.666;23.366;2024-02-23T06:40:48;94707.19;;;7.48;56.27
40205;BME280;26963;42.666;23.366;2024-02-23T06:43:13;94710.84;;;7.57;57.30
40205;BME280;26963;42.666;23.366;2024-02-23T06:45:39;94689.50;;;7.62;55.34
40205;BME280;26963;42.666;23.366;2024-02-23T06:48:05;94669.31;;;7.56;55.16
40205;BME280;26963;42.666;23.366;2024-02-23T06:50:31;94693.81;;;7.58;55.23
40205;BME280;26963;42.666;23.366;2024-02-23T06:52:56;94621.66;;;7.25;55.45
40205;BME280;26963;42.666;23.366;2024-02-23T06:55:22;94679.31;;;7.70;55.10
40205;BME280;26963;42.666;23.366;2024-02-23T06:57:48;94704.56;;;8.07;54.26
40205;BME280;26963;42.666;23.366;2024-02-23T07:00:14;94702.59;;;8.47;54.15
40205;BME280;26963;42.666;23.366;2024-02-23T07:02:40;94618.78;;;8.53;52.90
40205;BME280;26963;42.666;23.366;2024-02-23T07:05:06;94623.66;;;9.08;49.75
40205;BME280;26963;42.666;23.366;2024-02-23T07:07:32;94688.69;;;9.84;48.85
40205;BME280;26963;42.666;23.366;2024-02-23T07:10:01;94648.91;;;9.82;48.35
40205;BME280;26963;42.666;23.366;2024-02-23T07:12:27;94692.94;;;10.32;47.67
40205;BME280;26963;42.666;23.366;2024-02-23T07:14:55;94684.16;;;10.45;47.17
40205;BME280;26963;42.666;23.366;2024-02-23T07:17:21;94687.09;;;10.57;46.56
40205;BME280;26963;42.666;23.366;2024-02-23T07:19:47;94684.84;;;10.65;46.65
40205;BME280;26963;42.666;23.366;2024-02-23T07:22:13;94676.88;;;10.87;46.37
40205;BME280;26963;42.666;23.366;2024-02-23T07:24:42;94676.59;;;11.25;45.49
40205;BME280;26963;42.666;23.366;2024-02-23T07:27:08;94655.13;;;11.39;44.72
40205;BME280;26963;42.666;23.366;2024-02-23T07:29:34;94671.19;;;11.85;43.92
40205;BME280;26963;42.666;23.366;2024-02-23T07:31:59;94687.56;;;12.29;43.27
40205;BME280;26963;42.666;23.366;2024-02-23T07:34:25;94692.00;;;12.82;42.52
40205;BME280;26963;42.666;23.366;2024-02-23T07:36:59;94649.28;;;13.56;41.29
40205;BME280;26963;42.666;23.366;2024-02-23T07:39:25;94650.47;;;14.41;39.34
40205;BME280;26963;42.666;23.366;2024-02-23T07:41:53;94661.06;;;15.15;37.45
40205;BME280;26963;42.666;23.366;2024-02-23T07:44:21;94655.53;;;15.54;36.60
40205;BME280;26963;42.666;23.366;2024-02-23T07:46:47;94606.28;;;15.02;36.79
40205;BME280;26963;42.666;23.366;2024-02-23T07:49:12;94656.44;;;15.15;37.55
40205;BME280;26963;42.666;23.366;2024-02-23T07:51:38;94655.41;;;15.29;37.64
40205;BME280;26963;42.666;23.366;2024-02-23T07:54:04;94661.09;;;15.91;36.83
40205;BME280;26963;42.666;23.366;2024-02-23T07:56:30;94607.41;;;16.35;35.47
40205;BME280;26963;42.666;23.366;2024-02-23T07:58:56;94610.31;;;17.17;34.51
40205;BME280;26963;42.666;23.366;2024-02-23T08:01:22;94631.28;;;18.21;33.22
40205;BME280;26963;42.666;23.366;2024-02-23T08:03:47;94656.28;;;18.94;31.58
40205;BME280;26963;42.666;23.366;2024-02-23T08:06:15;94598.47;;;18.06;32.29
40205;BME280;26963;42.666;23.366;2024-02-23T08:08:41;94638.63;;;17.76;33.09
40205;BME280;26963;42.666;23.366;2024-02-23T08:11:06;94664.19;;;17.79;33.04
40205;BME280;26963;42.666;23.366;2024-02-23T08:13:32;94630.50;;;18.04;32.74
40205;BME280;26963;42.666;23.366;2024-02-23T08:16:00;94637.25;;;18.42;32.37
40205;BME280;26963;42.666;23.366;2024-02-23T08:18:26;94631.81;;;18.11;32.91
40205;BME280;26963;42.666;23.366;2024-02-23T08:20:52;94609.06;;;17.55;33.83
40205;BME280;26963;42.666;23.366;2024-02-23T08:23:27;94604.34;;;17.11;34.66
40205;BME280;26963;42.666;23.366;2024-02-23T08:25:52;94661.44;;;16.60;36.05
40205;BME280;26963;42.666;23.366;2024-02-23T08:28:19;94659.31;;;15.95;36.85
40205;BME280;26963;42.666;23.366;2024-02-23T08:30:44;94657.38;;;15.20;38.43
40205;BME280;26963;42.666;23.366;2024-02-23T08:33:11;94547.88;;;13.74;40.09
40205;BME280;26963;42.666;23.366;2024-02-23T08:35:36;94599.00;;;13.13;42.06
40205;BME280;26963;42.666;23.366;2024-02-23T08:38:02;94659.50;;;12.93;43.38
40205;BME280;26963;42.666;23.366;2024-02-23T08:40:28;94588.53;;;12.01;45.00
40205;BME280;26963;42.666;23.366;2024-02-23T08:42:53;94615.34;;;12.01;46.05
40205;BME280;26963;42.666;23.366;2024-02-23T08:45:19;94661.34;;;12.26;46.27
40205;BME280;26963;42.666;23.366;2024-02-23T08:47:44;94649.97;;;12.20;45.81
40205;BME280;26963;42.666;23.366;2024-02-23T08:50:10;94655.63;;;12.18;45.42
40205;BME280;26963;42.666;23.366;2024-02-23T08:52:36;94599.91;;;11.84;45.14
40205;BME280;26963;42.666;23.366;2024-02-23T08:55:01;94599.94;;;12.15;44.75
40205;BME280;26963;42.666;23.366;2024-02-23T08:57:27;94670.25;;;12.93;44.23
40205;BME280;26963;42.666;23.366;2024-02-23T08:59:53;94667.44;;;13.24;43.14
40205;BME280;26963;42.666;23.366;2024-02-23T09:02:19;94674.13;;;13.44;42.11
40205;BME280;26963;42.666;23.366;2024-02-23T09:04:45;94589.38;;;13.03;41.59
40205;BME280;26963;42.666;23.366;2024-02-23T09:07:12;94663.19;;;13.76;41.38
40205;BME280;26963;42.666;23.366;2024-02-23T09:09:37;94649.66;;;14.11;41.09
40205;BME280;26963;42.666;23.366;2024-02-23T09:12:03;94615.91;;;14.22;40.25
40205;BME280;26963;42.666;23.366;2024-02-23T09:14:29;94666.38;;;14.73;39.86
40205;BME280;26963;42.666;23.366;2024-02-23T09:16:55;94640.31;;;14.86;39.19
40205;BME280;26963;42.666;23.366;2024-02-23T09:19:20;94641.31;;;15.02;38.91
40205;BME280;26963;42.666;23.366;2024-02-23T09:21:46;94639.28;;;14.99;38.60
40205;BME280;26963;42.666;23.366;2024-02-23T09:24:12;94647.91;;;15.13;38.09
40205;BME280;26963;42.666;23.366;2024-02-23T09:26:38;94639.81;;;15.13;37.98
40205;BME280;26963;42.666;23.366;2024-02-23T09:29:04;94649.50;;;15.36;37.92
40205;BME280;26963;42.666;23.366;2024-02-23T09:31:30;94660.66;;;15.46;36.91
40205;BME280;26963;42.666;23.366;2024-02-23T09:33:57;94639.75;;;15.43;36.79
40205;BME280;26963;42.666;23.366;2024-02-23T09:36:23;94583.19;;;15.01;36.54
40205;BME280;26963;42.666;23.366;2024-02-23T09:38:50;94646.31;;;15.55;36.27
40205;BME280;26963;42.666;23.366;2024-02-23T09:41:20;94620.69;;;15.48;35.61
40205;BME280;26963;42.666;23.366;2024-02-23T09:43:47;94618.16;;;15.64;35.23
40205;BME280;26963;42.666;23.366;2024-02-23T09:46:16;94654.16;;;16.02;35.55
40205;BME280;26963;42.666;23.366;2024-02-23T09:48:43;94621.31;;;16.00;35.19
40205;BME280;26963;42.666;23.366;2024-02-23T09:51:10;94638.13;;;16.30;35.01
40205;BME280;26963;42.666;23.366;2024-02-23T09:53:38;94614.50;;;16.40;34.28
40205;BME280;26963;42.666;23.366;2024-02-23T09:56:04;94638.34;;;16.38;34.02
40205;BME280;26963;42.666;23.366;2024-02-23T09:58:32;94620.13;;;16.22;33.57
40205;BME280;26963;42.666;23.366;2024-02-23T10:00:59;94577.69;;;15.98;34.07
40205;BME280;26963;42.666;23.366;2024-02-23T10:03:27;94593.25;;;16.26;33.68
40205;BME280;26963;42.666;23.366;2024-02-23T10:05:54;94622.16;;;16.62;33.25
40205;BME280;26963;42.666;23.366;2024-02-23T10:08:25;94541.06;;;16.09;33.13
40205;BME280;26963;42.666;23.366;2024-02-23T10:10:54;94623.53;;;16.69;32.94
40205;BME280;26963;42.666;23.366;2024-02-23T10:13:22;94636.22;;;16.68;32.91
40205;BME280;26963;42.666;23.366;2024-02-23T10:15:50;94620.25;;;17.00;32.47
40205;BME280;26963;42.666;23.366;2024-02-23T10:18:19;94602.78;;;16.85;32.53
40205;BME280;26963;42.666;23.366;2024-02-23T10:20:45;94616.88;;;16.91;32.69
40205;BME280;26963;42.666;23.366;2024-02-23T10:23:12;94596.25;;;16.86;32.58
40205;BME280;26963;42.666;23.366;2024-02-23T10:25:38;94587.81;;;17.00;32.06
40205;BME280;26963;42.666;23.366;2024-02-23T10:28:06;94533.13;;;16.78;32.26
40205;BME280;26963;42.666;23.366;2024-02-23T10:30:32;94585.88;;;17.41;31.96
40205;BME280;26963;42.666;23.366;2024-02-23T10:32:59;94578.69;;;17.46;30.89
40205;BME280;26963;42.666;23.366;2024-02-23T10:35:25;94586.09;;;17.49;30.72
40205;BME280;26963;42.666;23.366;2024-02-23T10:37:53;94596.94;;;17.36;31.44
40205;BME280;26963;42.666;23.366;2024-02-23T10:40:20;94546.81;;;17.10;31.53
40205;BME280;26963;42.666;23.366;2024-02-23T10:42:48;94566.13;;;17.53;30.99
40205;BME280;26963;42.666;23.366;2024-02-23T10:45:21;94500.25;;;17.46;30.38
40205;BME280;26963;42.666;23.366;2024-02-23T10:47:50;94572.34;;;18.14;30.51
40205;BME280;26963;42.666;23.366;2024-02-23T10:50:17;94577.47;;;18.35;30.06
40205;BME280;26963;42.666;23.366;2024-02-23T10:52:45;94579.22;;;18.44;29.64
40205;BME280;26963;42.666;23.366;2024-02-23T10:55:12;94559.81;;;18.41;29.58
40205;BME280;26963;42.666;23.366;2024-02-23T10:57:38;94557.72;;;18.51;28.94
40205;BME280;26963;42.666;23.366;2024-02-23T11:00:08;94564.09;;;18.58;29.44
40205;BME280;26963;42.666;23.366;2024-02-23T11:02:44;94543.28;;;18.63;29.95
40205;BME280;26963;42.666;23.366;2024-02-23T11:05:11;94534.25;;;18.74;28.41
40205;BME280;26963;42.666;23.366;2024-02-23T11:07:39;94556.00;;;18.78;29.25
40205;BME280;26963;42.666;23.366;2024-02-23T11:10:07;94534.13;;;18.87;28.55
40205;BME280;26963;42.666;23.366;2024-02-23T11:12:35;94524.50;;;18.54;28.63
40205;BME280;26963;42.666;23.366;2024-02-23T11:15:01;94535.63;;;18.49;28.88
40205;BME280;26963;42.666;23.366;2024-02-23T11:17:28;94468.25;;;17.96;28.55
40205;BME280;26963;42.666;23.366;2024-02-23T11:19:55;94537.38;;;18.41;28.61
40205;BME280;26963;42.666;23.366;2024-02-23T11:22:25;94530.19;;;18.49;29.18
40205;BME280;26963;42.666;23.366;2024-02-23T11:24:51;94489.25;;;18.34;27.83
40205;BME280;26963;42.666;23.366;2024-02-23T11:27:17;94513.28;;;18.71;27.98
40205;BME280;26963;42.666;23.366;2024-02-23T11:29:45;94514.69;;;19.01;27.60
40205;BME280;26963;42.666;23.366;2024-02-23T11:32:15;94527.63;;;19.27;27.64
40205;BME280;26963;42.666;23.366;2024-02-23T11:34:41;94501.00;;;19.13;25.75
40205;BME280;26963;42.666;23.366;2024-02-23T11:37:10;94508.91;;;19.02;26.46
40205;BME280;26963;42.666;23.366;2024-02-23T11:39:39;94515.88;;;18.84;26.95
40205;BME280;26963;42.666;23.366;2024-02-23T11:42:08;94482.56;;;18.48;26.90
40205;BME280;26963;42.666;23.366;2024-02-23T11:44:34;94512.81;;;18.50;26.91
40205;BME280;26963;42.666;23.366;2024-02-23T11:46:59;94488.53;;;18.37;27.15
40205;BME280;26963;42.666;23.366;2024-02-23T11:49:29;94523.47;;;18.42;27.87
40205;BME280;26963;42.666;23.366;2024-02-23T11:51:55;94518.78;;;18.39;27.66
40205;BME280;26963;42.666;23.366;2024-02-23T11:54:22;94487.34;;;18.19;27.70
40205;BME280;26963;42.666;23.366;2024-02-23T11:56:48;94502.09;;;18.37;27.64
40205;BME280;26963;42.666;23.366;2024-02-23T11:59:15;94510.69;;;18.59;28.25
40205;BME280;26963;42.666;23.366;2024-02-23T12:01:41;94451.63;;;18.29;28.15
40205;BME280;26963;42.666;23.366;2024-02-23T12:04:07;94454.78;;;18.51;27.31
40205;BME280;26963;42.666;23.366;2024-02-23T12:06:33;94466.03;;;18.33;27.32
40205;BME280;26963;42.666;23.366;2024-02-23T12:08:59;94475.44;;;18.39;27.37
40205;BME280;26963;42.666;23.366;2024-02-23T12:11:26;94437.75;;;18.15;27.47
40205;BME280;26963;42.666;23.366;2024-02-23T12:13:53;94471.28;;;18.26;27.07
40205;BME280;26963;42.666;23.366;2024-02-23T12:16:20;94500.47;;;18.17;27.59
40205;BME280;26963;42.666;23.366;2024-02-23T12:18:52;94487.44;;;17.90;27.33
40205;BME280;26963;42.666;23.366;2024-02-23T12:21:18;94486.66;;;17.74;27.94
40205;BME280;26963;42.666;23.366;2024-02-23T12:23:45;94473.97;;;17.78;27.89
40205;BME280;26963;42.666;23.366;2024-02-23T12:26:12;94495.53;;;17.74;28.41
40205;BME280;26963;42.666;23.366;2024-02-23T12:28:39;94478.34;;;17.67;28.16
40205;BME280;26963;42.666;23.366;2024-02-23T12:31:05;94472.50;;;17.49;27.75
40205;BME280;26963;42.666;23.366;2024-02-23T12:33:32;94464.19;;;17.41;27.56
40205;BME280;26963;42.666;23.366;2024-02-23T12:36:00;94450.31;;;17.27;26.89
40205;BME280;26963;42.666;23.366;2024-02-23T12:38:25;94474.59;;;17.39;27.46
40205;BME280;26963;42.666;23.366;2024-02-23T12:40:51;94463.66;;;17.36;27.75
40205;BME280;26963;42.666;23.366;2024-02-23T12:43:18;94474.59;;;17.39;27.29
40205;BME280;26963;42.666;23.366;2024-02-23T12:45:43;94459.81;;;17.21;27.46
40205;BME280;26963;42.666;23.366;2024-02-23T12:48:10;94465.41;;;17.28;27.42
40205;BME280;26963;42.666;23.366;2024-02-23T12:50:36;94456.91;;;17.14;27.72